sensor_id;sensor_type;location;lat;lon;timestamp;P1;durP1;ratioP1;P2;durP2;ratioP2
16430;SDS011;8325;49.284;7.238;2023-02-17T05:01:57;7.93;;;6.10;;
16430;SDS011;8325;49.284;7.238;2023-02-17T05:06:09;8.82;;;6.72;;
16430;SDS011;8325;49.284;7.238;2023-02-17T05:10:20;8.30;;;6.82;;
16430;SDS011;8325;49.284;7.238;2023-02-17T05:14:35;10.68;;;7.32;;
16430;SDS011;8325;49.284;7.238;2023-02-17T05:18:47;8.88;;;6.55;;
16430;SDS011;8325;49.284;7.238;2023-02-17T05:22:58;11.20;;;7.47;;
16430;SDS011;8325;49.284;7.238;2023-02-17T05:27:10;10.23;;;7.80;;
16430;SDS011;8325;49.284;7.238;2023-02-17T05:31:24;11.23;;;7.78;;
16430;SDS011;8325;49.284;7.238;2023-02-17T05:35:36;8.73;;;6.88;;
16430;SDS011;8325;49.284;7.238;2023-02-17T05:39:48;8.77;;;6.85;;
16430;SDS011;8325;49.284;7.238;2023-02-17T05:44:00;9.32;;;7.07;;
16430;SDS011;8325;49.284;7.238;2023-02-17T05:48:12;10.32;;;7.10;;
16430;SDS011;8325;49.284;7.238;2023-02-17T05:52:24;9.43;;;6.65;;
16430;SDS011;8325;49.284;7.238;2023-02-17T05:56:35;8.98;;;6.90;;
16430;SDS011;8325;49.284;7.238;2023-02-17T06:00:53;8.48;;;6.45;;
16430;SDS011;8325;49.284;7.238;2023-02-17T06:05:06;6.07;;;4.88;;
16430;SDS011;8325;49.284;7.238;2023-02-17T06:09:18;6.82;;;5.13;;
16430;SDS011;8325;49.284;7.238;2023-02-17T06:13:30;8.27;;;5.57;;
16430;SDS011;8325;49.284;7.238;2023-02-17T06:17:41;5.88;;;4.78;;
16430;SDS011;8325;49.284;7.238;2023-02-17T06:21:53;6.20;;;4.43;;
16430;SDS011;8325;49.284;7.238;2023-02-17T06:26:06;6.00;;;4.70;;
16430;SDS011;8325;49.284;7.238;2023-02-17T06:30:18;5.88;;;4.20;;
16430;SDS011;8325;49.284;7.238;2023-02-17T06:34:31;4.03;;;3.45;;
16430;SDS011;8325;49.284;7.238;2023-02-17T06:38:43;3.90;;;3.50;;
16430;SDS011;8325;49.284;7.238;2023-02-17T06:42:54;4.95;;;3.47;;
16430;SDS011;8325;49.284;7.238;2023-02-17T06:47:06;4.97;;;3.53;;
16430;SDS011;8325;49.284;7.238;2023-02-17T06:51:17;5.32;;;3.60;;
16430;SDS011;8325;49.284;7.238;2023-02-17T06:55:29;3.78;;;3.35;;
16430;SDS011;8325;49.284;7.238;2023-02-17T06:59:40;4.25;;;3.30;;
16430;SDS011;8325;49.284;7.238;2023-02-17T07:03:52;3.40;;;3.10;;
16430;SDS011;8325;49.284;7.238;2023-02-17T07:08:05;4.30;;;2.97;;
16430;SDS011;8325;49.284;7.238;2023-02-17T07:12:16;3.67;;;3.00;;
16430;SDS011;8325;49.284;7.238;2023-02-17T07:16:28;3.85;;;3.15;;
16430;SDS011;8325;49.284;7.238;2023-02-17T07:20:39;3.72;;;3.00;;
16430;SDS011;8325;49.284;7.238;2023-02-17T07:24:51;3.38;;;2.90;;
16430;SDS011;8325;49.284;7.238;2023-02-17T07:29:03;4.88;;;3.20;;
16430;SDS011;8325;49.284;7.238;2023-02-17T07:33:16;3.08;;;2.78;;
16430;SDS011;8325;49.284;7.238;2023-02-17T07:37:27;4.20;;;3.50;;
16430;SDS011;8325;49.284;7.238;2023-02-17T07:41:39;3.58;;;3.17;;
16430;SDS011;8325;49.284;7.238;2023-02-17T07:45:53;4.13;;;3.67;;
16430;SDS011;8325;49.284;7.238;2023-02-17T07:50:06;5.05;;;3.97;;
16430;SDS011;8325;49.284;7.238;2023-02-17T07:54:18;5.57;;;4.18;;
16430;SDS011;8325;49.284;7.238;2023-02-17T07:58:33;5.38;;;4.15;;
16430;SDS011;8325;49.284;7.238;2023-02-17T08:02:46;6.38;;;4.30;;
16430;SDS011;8325;49.284;7.238;2023-02-17T08:06:58;4.72;;;3.85;;
16430;SDS011;8325;49.284;7.238;2023-02-17T08:11:11;4.40;;;3.92;;
16430;SDS011;8325;49.284;7.238;2023-02-17T08:15:42;4.82;;;3.85;;
16430;SDS011;8325;49.284;7.238;2023-02-17T08:19:54;5.93;;;4.65;;
16430;SDS011;8325;49.284;7.238;2023-02-17T08:24:06;5.65;;;4.75;;
16430;SDS011;8325;49.284;7.238;2023-02-17T08:28:17;7.50;;;5.78;;
16430;SDS011;8325;49.284;7.238;2023-02-17T08:32:31;6.57;;;5.18;;
16430;SDS011;8325;49.284;7.238;2023-02-17T08:36:43;8.02;;;6.05;;
16430;SDS011;8325;49.284;7.238;2023-02-17T08:40:54;9.88;;;7.38;;
16430;SDS011;8325;49.284;7.238;2023-02-17T08:45:06;10.05;;;7.35;;
16430;SDS011;8325;49.284;7.238;2023-02-17T08:49:20;11.38;;;8.00;;
16430;SDS011;8325;49.284;7.238;2023-02-17T08:53:34;8.93;;;7.15;;
16430;SDS011;8325;49.284;7.238;2023-02-17T08:57:45;7.40;;;5.45;;
16430;SDS011;8325;49.284;7.238;2023-02-17T09:01:57;7.90;;;6.00;;
16430;SDS011;8325;49.284;7.238;2023-02-17T09:06:09;8.63;;;5.75;;
16430;SDS011;8325;49.284;7.238;2023-02-17T09:10:20;7.55;;;5.60;;
16430;SDS011;8325;49.284;7.238;2023-02-17T09:14:32;7.13;;;5.22;;
16430;SDS011;8325;49.284;7.238;2023-02-17T09:18:44;6.10;;;4.78;;
16430;SDS011;8325;49.284;7.238;2023-02-17T09:22:55;4.03;;;3.60;;
16430;SDS011;8325;49.284;7.238;2023-02-17T09:27:07;4.00;;;3.42;;
16430;SDS011;8325;49.284;7.238;2023-02-17T09:31:20;5.22;;;3.80;;
16430;SDS011;8325;49.284;7.238;2023-02-17T09:35:42;4.68;;;3.78;;
16430;SDS011;8325;49.284;7.238;2023-02-17T09:39:54;4.20;;;3.63;;
16430;SDS011;8325;49.284;7.238;2023-02-17T09:44:10;5.28;;;3.50;;
16430;SDS011;8325;49.284;7.238;2023-02-17T09:48:36;4.13;;;3.33;;
16430;SDS011;8325;49.284;7.238;2023-02-17T09:52:51;3.90;;;3.30;;
16430;SDS011;8325;49.284;7.238;2023-02-17T09:57:10;4.93;;;3.45;;
16430;SDS011;8325;49.284;7.238;2023-02-17T10:01:28;4.00;;;3.45;;
16430;SDS011;8325;49.284;7.238;2023-02-17T10:05:44;3.72;;;3.22;;
16430;SDS011;8325;49.284;7.238;2023-02-17T10:10:05;5.15;;;3.47;;
16430;SDS011;8325;49.284;7.238;2023-02-17T10:14:23;3.83;;;3.35;;
16430;SDS011;8325;49.284;7.238;2023-02-17T10:19:58;3.50;;;2.72;;
16430;SDS011;8325;49.284;7.238;2023-02-17T10:23:39;3.85;;;2.92;;
16430;SDS011;8325;49.284;7.238;2023-02-17T10:27:54;3.55;;;3.22;;
16430;SDS011;8325;49.284;7.238;2023-02-17T10:32:29;4.53;;;3.00;;
16430;SDS011;8325;49.284;7.238;2023-02-17T10:36:47;5.63;;;3.67;;
16430;SDS011;8325;49.284;7.238;2023-02-17T10:41:02;5.88;;;3.58;;
16430;SDS011;8325;49.284;7.238;2023-02-17T10:45:27;4.57;;;3.92;;
16430;SDS011;8325;49.284;7.238;2023-02-17T10:49:44;3.72;;;3.33;;
16430;SDS011;8325;49.284;7.238;2023-02-17T10:54:02;4.43;;;3.58;;
16430;SDS011;8325;49.284;7.238;2023-02-17T10:58:23;4.10;;;3.58;;
16430;SDS011;8325;49.284;7.238;2023-02-17T11:02:42;4.28;;;3.75;;
16430;SDS011;8325;49.284;7.238;2023-02-17T11:06:56;5.20;;;4.07;;
16430;SDS011;8325;49.284;7.238;2023-02-17T11:11:21;4.97;;;3.83;;
16430;SDS011;8325;49.284;7.238;2023-02-17T11:20:29;5.43;;;4.28;;
16430;SDS011;8325;49.284;7.238;2023-02-17T11:24:43;7.05;;;5.13;;
16430;SDS011;8325;49.284;7.238;2023-02-17T11:29:05;5.82;;;4.70;;
16430;SDS011;8325;49.284;7.238;2023-02-17T11:33:31;7.43;;;4.78;;
16430;SDS011;8325;49.284;7.238;2023-02-17T11:37:46;6.07;;;5.03;;
16430;SDS011;8325;49.284;7.238;2023-02-17T11:41:57;8.15;;;5.80;;
16430;SDS011;8325;49.284;7.238;2023-02-17T11:46:24;7.43;;;5.57;;
16430;SDS011;8325;49.284;7.238;2023-02-17T12:04:00;8.60;;;6.38;;
16430;SDS011;8325;49.284;7.238;2023-02-17T12:13:01;7.88;;;7.05;;
16430;SDS011;8325;49.284;7.238;2023-02-17T12:22:00;8.52;;;6.45;;
16430;SDS011;8325;49.284;7.238;2023-02-17T12:26:33;8.77;;;5.68;;
16430;SDS011;8325;49.284;7.238;2023-02-17T12:30:58;10.07;;;5.40;;
16430;SDS011;8325;49.284;7.238;2023-02-17T12:35:24;7.35;;;5.97;;
16430;SDS011;8325;49.284;7.238;2023-02-17T12:39:42;9.05;;;6.28;;
16430;SDS011;8325;49.284;7.238;2023-02-17T12:43:58;7.82;;;5.80;;
16430;SDS011;8325;49.284;7.238;2023-02-17T12:48:13;7.97;;;5.95;;
16430;SDS011;8325;49.284;7.238;2023-02-17T12:52:36;7.68;;;5.85;;
16430;SDS011;8325;49.284;7.238;2023-02-17T13:01:20;9.73;;;6.57;;
16430;SDS011;8325;49.284;7.238;2023-02-17T13:09:58;6.65;;;5.55;;
16430;SDS011;8325;49.284;7.238;2023-02-17T13:14:11;6.47;;;5.47;;
16430;SDS011;8325;49.284;7.238;2023-02-17T13:18:40;7.95;;;6.05;;
16430;SDS011;8325;49.284;7.238;2023-02-17T13:23:04;7.95;;;6.28;;
16430;SDS011;8325;49.284;7.238;2023-02-17T13:27:30;10.13;;;6.00;;
16430;SDS011;8325;49.284;7.238;2023-02-17T13:31:45;9.43;;;6.68;;
16430;SDS011;8325;49.284;7.238;2023-02-17T13:36:15;8.50;;;6.40;;
16430;SDS011;8325;49.284;7.238;2023-02-17T13:40:34;8.68;;;6.03;;
16430;SDS011;8325;49.284;7.238;2023-02-17T13:44:49;7.82;;;5.97;;
16430;SDS011;8325;49.284;7.238;2023-02-17T13:49:05;9.35;;;6.43;;
16430;SDS011;8325;49.284;7.238;2023-02-17T13:57:34;9.63;;;5.65;;
16430;SDS011;8325;49.284;7.238;2023-02-17T14:01:46;7.72;;;6.20;;
16430;SDS011;8325;49.284;7.238;2023-02-17T14:06:00;6.20;;;5.00;;
16430;SDS011;8325;49.284;7.238;2023-02-17T14:10:16;8.38;;;5.93;;
16430;SDS011;8325;49.284;7.238;2023-02-17T14:14:30;6.65;;;5.28;;
16430;SDS011;8325;49.284;7.238;2023-02-17T14:18:47;7.13;;;5.97;;
16430;SDS011;8325;49.284;7.238;2023-02-17T14:23:03;6.43;;;5.60;;
16430;SDS011;8325;49.284;7.238;2023-02-17T14:27:15;7.07;;;5.13;;
16430;SDS011;8325;49.284;7.238;2023-02-17T14:31:27;6.85;;;5.38;;
16430;SDS011;8325;49.284;7.238;2023-02-17T14:35:38;7.45;;;5.70;;
16430;SDS011;8325;49.284;7.238;2023-02-17T14:40:08;9.88;;;7.05;;
16430;SDS011;8325;49.284;7.238;2023-02-17T14:44:27;10.93;;;8.18;;
16430;SDS011;8325;49.284;7.238;2023-02-17T14:48:39;12.55;;;8.27;;
16430;SDS011;8325;49.284;7.238;2023-02-17T14:52:51;11.73;;;8.32;;
16430;SDS011;8325;49.284;7.238;2023-02-17T14:57:07;10.80;;;7.53;;
16430;SDS011;8325;49.284;7.238;2023-02-17T15:01:23;9.20;;;7.13;;
16430;SDS011;8325;49.284;7.238;2023-02-17T15:05:35;10.05;;;7.82;;
16430;SDS011;8325;49.284;7.238;2023-02-17T15:09:47;10.30;;;7.65;;
16430;SDS011;8325;49.284;7.238;2023-02-17T15:13:59;12.48;;;8.32;;
16430;SDS011;8325;49.284;7.238;2023-02-17T15:18:13;10.90;;;7.80;;
16430;SDS011;8325;49.284;7.238;2023-02-17T15:22:26;10.80;;;8.38;;
16430;SDS011;8325;49.284;7.238;2023-02-17T15:26:37;10.68;;;8.07;;
16430;SDS011;8325;49.284;7.238;2023-02-17T15:30:50;12.50;;;9.18;;
16430;SDS011;8325;49.284;7.238;2023-02-17T15:35:12;9.55;;;7.28;;
16430;SDS011;8325;49.284;7.238;2023-02-17T15:39:27;8.60;;;6.95;;
16430;SDS011;8325;49.284;7.238;2023-02-17T15:43:39;8.55;;;7.25;;
16430;SDS011;8325;49.284;7.238;2023-02-17T15:47:51;9.85;;;7.57;;
16430;SDS011;8325;49.284;7.238;2023-02-17T15:52:16;8.82;;;7.13;;
16430;SDS011;8325;49.284;7.238;2023-02-17T15:56:31;8.35;;;6.10;;
16430;SDS011;8325;49.284;7.238;2023-02-17T16:00:50;8.27;;;6.25;;
16430;SDS011;8325;49.284;7.238;2023-02-17T16:05:02;8.52;;;5.65;;
16430;SDS011;8325;49.284;7.238;2023-02-17T16:09:14;9.27;;;7.00;;
16430;SDS011;8325;49.284;7.238;2023-02-17T16:13:25;7.90;;;5.95;;
16430;SDS011;8325;49.284;7.238;2023-02-17T16:17:37;8.10;;;6.30;;
16430;SDS011;8325;49.284;7.238;2023-02-17T16:21:49;8.82;;;6.53;;
16430;SDS011;8325;49.284;7.238;2023-02-17T16:26:00;8.07;;;6.20;;
16430;SDS011;8325;49.284;7.238;2023-02-17T16:30:22;8.98;;;7.07;;
16430;SDS011;8325;49.284;7.238;2023-02-17T16:34:37;6.93;;;5.90;;
16430;SDS011;8325;49.284;7.238;2023-02-17T16:38:49;8.98;;;7.18;;
16430;SDS011;8325;49.284;7.238;2023-02-17T16:43:01;9.10;;;6.95;;
16430;SDS011;8325;49.284;7.238;2023-02-17T16:47:17;7.57;;;6.15;;
16430;SDS011;8325;49.284;7.238;2023-02-17T16:51:32;8.82;;;7.05;;
16430;SDS011;8325;49.284;7.238;2023-02-17T16:55:44;7.50;;;5.97;;
16430;SDS011;8325;49.284;7.238;2023-02-17T16:59:56;8.38;;;6.90;;
16430;SDS011;8325;49.284;7.238;2023-02-17T17:04:08;8.60;;;6.85;;
16430;SDS011;8325;49.284;7.238;2023-02-17T17:08:20;7.95;;;5.63;;
16430;SDS011;8325;49.284;7.238;2023-02-17T17:12:32;5.85;;;5.00;;
16430;SDS011;8325;49.284;7.238;2023-02-17T17:16:46;7.30;;;5.57;;
16430;SDS011;8325;49.284;7.238;2023-02-17T17:21:07;7.68;;;5.28;;
16430;SDS011;8325;49.284;7.238;2023-02-17T17:25:21;5.65;;;4.88;;
16430;SDS011;8325;49.284;7.238;2023-02-17T17:29:32;5.45;;;4.47;;
16430;SDS011;8325;49.284;7.238;2023-02-17T17:33:44;5.28;;;4.10;;
16430;SDS011;8325;49.284;7.238;2023-02-17T17:37:57;5.85;;;4.10;;
16430;SDS011;8325;49.284;7.238;2023-02-17T17:42:09;5.63;;;4.75;;
16430;SDS011;8325;49.284;7.238;2023-02-17T17:46:24;5.07;;;4.32;;
16430;SDS011;8325;49.284;7.238;2023-02-17T17:50:38;5.72;;;4.40;;
16430;SDS011;8325;49.284;7.238;2023-02-17T17:54:50;4.75;;;4.00;;
16430;SDS011;8325;49.284;7.238;2023-02-17T17:59:02;4.80;;;4.30;;
16430;SDS011;8325;49.284;7.238;2023-02-17T18:03:15;5.05;;;4.28;;
16430;SDS011;8325;49.284;7.238;2023-02-17T18:07:26;5.68;;;4.60;;
16430;SDS011;8325;49.284;7.238;2023-02-17T18:11:38;6.45;;;5.05;;
16430;SDS011;8325;49.284;7.238;2023-02-17T18:15:52;7.35;;;4.78;;
16430;SDS011;8325;49.284;7.238;2023-02-17T18:20:06;6.95;;;5.70;;
16430;SDS011;8325;49.284;7.238;2023-02-17T18:24:21;8.02;;;6.30;;
16430;SDS011;8325;49.284;7.238;2023-02-17T18:28:33;5.82;;;4.80;;
16430;SDS011;8325;49.284;7.238;2023-02-17T18:32:44;5.75;;;4.55;;
16430;SDS011;8325;49.284;7.238;2023-02-17T18:36:56;7.65;;;6.30;;
16430;SDS011;8325;49.284;7.238;2023-02-17T18:41:15;6.18;;;5.22;;
16430;SDS011;8325;49.284;7.238;2023-02-17T18:45:36;6.25;;;5.20;;
16430;SDS011;8325;49.284;7.238;2023-02-17T18:49:47;7.15;;;6.00;;
16430;SDS011;8325;49.284;7.238;2023-02-17T18:53:59;4.85;;;4.10;;
16430;SDS011;8325;49.284;7.238;2023-02-17T18:58:12;6.47;;;5.10;;
16430;SDS011;8325;49.284;7.238;2023-02-17T19:02:24;6.07;;;5.07;;
16430;SDS011;8325;49.284;7.238;2023-02-17T19:06:36;8.27;;;4.72;;
16430;SDS011;8325;49.284;7.238;2023-02-17T19:10:49;5.78;;;4.30;;
16430;SDS011;8325;49.284;7.238;2023-02-17T19:15:00;6.10;;;4.97;;
16430;SDS011;8325;49.284;7.238;2023-02-17T19:19:12;5.85;;;5.03;;
16430;SDS011;8325;49.284;7.238;2023-02-17T19:23:24;5.22;;;4.50;;
16430;SDS011;8325;49.284;7.238;2023-02-17T19:27:37;4.75;;;4.13;;
16430;SDS011;8325;49.284;7.238;2023-02-17T19:31:50;4.82;;;4.32;;
16430;SDS011;8325;49.284;7.238;2023-02-17T19:36:06;6.93;;;4.68;;
16430;SDS011;8325;49.284;7.238;2023-02-17T19:40:20;5.00;;;4.35;;
16430;SDS011;8325;49.284;7.238;2023-02-17T19:44:32;6.22;;;4.53;;
16430;SDS011;8325;49.284;7.238;2023-02-17T19:48:44;5.65;;;4.28;;
16430;SDS011;8325;49.284;7.238;2023-02-17T19:52:56;7.40;;;5.00;;
16430;SDS011;8325;49.284;7.238;2023-02-17T19:57:07;5.47;;;4.28;;
16430;SDS011;8325;49.284;7.238;2023-02-17T20:01:20;8.00;;;5.05;;
16430;SDS011;8325;49.284;7.238;2023-02-17T20:05:37;5.60;;;4.60;;
16430;SDS011;8325;49.284;7.238;2023-02-17T20:09:50;5.88;;;4.72;;
16430;SDS011;8325;49.284;7.238;2023-02-17T20:14:01;6.10;;;4.70;;
16430;SDS011;8325;49.284;7.238;2023-02-17T20:18:13;5.22;;;4.53;;
16430;SDS011;8325;49.284;7.238;2023-02-17T20:22:25;6.95;;;5.60;;
16430;SDS011;8325;49.284;7.238;2023-02-17T20:26:38;7.90;;;6.43;;
16430;SDS011;8325;49.284;7.238;2023-02-17T20:30:51;10.25;;;7.05;;
16430;SDS011;8325;49.284;7.238;2023-02-17T20:35:03;9.52;;;7.40;;
16430;SDS011;8325;49.284;7.238;2023-02-17T20:39:15;9.05;;;7.47;;
16430;SDS011;8325;49.284;7.238;2023-02-17T20:43:27;8.48;;;7.25;;
16430;SDS011;8325;49.284;7.238;2023-02-17T20:47:40;9.52;;;7.43;;
16430;SDS011;8325;49.284;7.238;2023-02-17T20:51:52;8.93;;;7.10;;
16430;SDS011;8325;49.284;7.238;2023-02-17T20:56:10;9.95;;;7.55;;
16430;SDS011;8325;49.284;7.238;2023-02-17T21:00:30;9.60;;;7.35;;
16430;SDS011;8325;49.284;7.238;2023-02-17T21:04:42;8.68;;;7.18;;
16430;SDS011;8325;49.284;7.238;2023-02-17T21:08:54;9.55;;;7.72;;
16430;SDS011;8325;49.284;7.238;2023-02-17T21:13:08;9.10;;;6.88;;
16430;SDS011;8325;49.284;7.238;2023-02-17T21:17:20;8.30;;;7.13;;
16430;SDS011;8325;49.284;7.238;2023-02-17T21:21:32;9.70;;;7.68;;
16430;SDS011;8325;49.284;7.238;2023-02-17T21:25:44;9.05;;;7.30;;
16430;SDS011;8325;49.284;7.238;2023-02-17T21:29:56;9.20;;;7.30;;
16430;SDS011;8325;49.284;7.238;2023-02-17T21:34:08;10.23;;;7.85;;
16430;SDS011;8325;49.284;7.238;2023-02-17T21:38:22;9.90;;;7.03;;
16430;SDS011;8325;49.284;7.238;2023-02-17T21:42:35;9.40;;;7.32;;
16430;SDS011;8325;49.284;7.238;2023-02-17T21:47:06;8.27;;;7.00;;
16430;SDS011;8325;49.284;7.238;2023-02-17T21:51:17;8.18;;;6.72;;
16430;SDS011;8325;49.284;7.238;2023-02-17T21:55:30;9.15;;;6.90;;
16430;SDS011;8325;49.284;7.238;2023-02-17T21:59:41;8.80;;;7.15;;
16430;SDS011;8325;49.284;7.238;2023-02-17T22:03:54;9.30;;;7.07;;
16430;SDS011;8325;49.284;7.238;2023-02-17T22:08:07;8.95;;;7.10;;
16430;SDS011;8325;49.284;7.238;2023-02-17T22:12:19;8.13;;;6.82;;
16430;SDS011;8325;49.284;7.238;2023-02-17T22:16:32;8.18;;;6.53;;
16430;SDS011;8325;49.284;7.238;2023-02-17T22:20:45;8.50;;;6.90;;
16430;SDS011;8325;49.284;7.238;2023-02-17T22:24:56;8.70;;;7.30;;
16430;SDS011;8325;49.284;7.238;2023-02-17T22:29:08;10.18;;;7.35;;
